sensor_id;sensor_type;location;lat;lon;timestamp;pressure;altitude;pressure_sealevel;temperature;humidity
47935;BME280;33704;43.592;-79.628;2024-02-23T00:00:19;98429.98;;;35.25;22.43
47935;BME280;33704;43.592;-79.628;2024-02-23T00:00:52;98432.92;;;35.24;22.46
47935;BME280;33704;43.592;-79.628;2024-02-23T00:01:24;98431.65;;;35.25;22.51
47935;BME280;33704;43.592;-79.628;2024-02-23T00:01:56;98431.97;;;35.29;22.39
47935;BME280;33704;43.592;-79.628;2024-02-23T00:02:28;98431.03;;;35.31;22.33
47935;BME280;33704;43.592;-79.628;2024-02-23T00:02:59;98431.62;;;35.32;22.31
47935;BME280;33704;43.592;-79.628;2024-02-23T00:03:32;98431.69;;;35.28;22.32
47935;BME280;33704;43.592;-79.628;2024-02-23T00:04:04;98431.35;;;35.27;22.43
47935;BME280;33704;43.592;-79.628;2024-02-23T00:04:36;98430.79;;;35.23;22.52
47935;BME280;33704;43.592;-79.628;2024-02-23T00:05:08;98430.72;;;35.27;22.55
47935;BME280;33704;43.592;-79.628;2024-02-23T00:05:40;98431.15;;;35.31;22.55
47935;BME280;33704;43.592;-79.628;2024-02-23T00:06:13;98431.71;;;35.33;22.39
47935;BME280;33704;43.592;-79.628;2024-02-23T00:06:44;98431.85;;;35.30;22.38
47935;BME280;33704;43.592;-79.628;2024-02-23T00:07:16;98431.96;;;35.33;22.38
47935;BME280;33704;43.592;-79.628;2024-02-23T00:07:48;98433.20;;;35.34;22.27
47935;BME280;33704;43.592;-79.628;2024-02-23T00:08:20;98433.16;;;35.32;22.33
47935;BME280;33704;43.592;-79.628;2024-02-23T00:08:52;98433.98;;;35.33;22.50
47935;BME280;33704;43.592;-79.628;2024-02-23T00:09:25;98436.53;;;35.36;22.44
47935;BME280;33704;43.592;-79.628;2024-02-23T00:09:56;98435.68;;;35.35;22.41
47935;BME280;33704;43.592;-79.628;2024-02-23T00:10:28;98435.08;;;35.36;22.61
47935;BME280;33704;43.592;-79.628;2024-02-23T00:11:00;98435.97;;;35.40;22.46
47935;BME280;33704;43.592;-79.628;2024-02-23T00:11:32;98436.24;;;35.41;22.44
47935;BME280;33704;43.592;-79.628;2024-02-23T00:12:05;98437.65;;;35.45;22.44
47935;BME280;33704;43.592;-79.628;2024-02-23T00:12:37;98437.88;;;35.52;22.34
47935;BME280;33704;43.592;-79.628;2024-02-23T00:13:09;98438.39;;;35.46;22.41
47935;BME280;33704;43.592;-79.628;2024-02-23T00:13:41;98439.24;;;35.47;22.45
47935;BME280;33704;43.592;-79.628;2024-02-23T00:14:14;98440.58;;;35.46;22.45
47935;BME280;33704;43.592;-79.628;2024-02-23T00:14:46;98439.74;;;35.46;22.53
47935;BME280;33704;43.592;-79.628;2024-02-23T00:15:18;98439.39;;;35.48;22.34
47935;BME280;33704;43.592;-79.628;2024-02-23T00:15:50;98439.98;;;35.45;22.39
47935;BME280;33704;43.592;-79.628;2024-02-23T00:16:22;98440.86;;;35.52;22.26
47935;BME280;33704;43.592;-79.628;2024-02-23T00:16:54;98441.68;;;35.53;22.31
47935;BME280;33704;43.592;-79.628;2024-02-23T00:17:26;98442.62;;;35.55;22.24
47935;BME280;33704;43.592;-79.628;2024-02-23T00:17:57;98441.15;;;35.53;22.25
47935;BME280;33704;43.592;-79.628;2024-02-23T00:18:29;98441.61;;;35.52;22.30
47935;BME280;33704;43.592;-79.628;2024-02-23T00:19:02;98440.77;;;35.55;22.22
47935;BME280;33704;43.592;-79.628;2024-02-23T00:19:34;98441.55;;;35.58;22.20
47935;BME280;33704;43.592;-79.628;2024-02-23T00:20:10;98441.77;;;35.62;22.12
47935;BME280;33704;43.592;-79.628;2024-02-23T00:20:43;98439.37;;;35.61;22.15
47935;BME280;33704;43.592;-79.628;2024-02-23T00:21:15;98439.74;;;35.68;22.17
47935;BME280;33704;43.592;-79.628;2024-02-23T00:21:47;98441.76;;;35.73;22.03
47935;BME280;33704;43.592;-79.628;2024-02-23T00:22:19;98441.11;;;35.73;22.10
47935;BME280;33704;43.592;-79.628;2024-02-23T00:22:51;98440.32;;;35.73;22.00
47935;BME280;33704;43.592;-79.628;2024-02-23T00:23:23;98440.92;;;35.70;22.04
47935;BME280;33704;43.592;-79.628;2024-02-23T00:23:55;98437.42;;;35.67;22.13
47935;BME280;33704;43.592;-79.628;2024-02-23T00:24:27;98436.31;;;35.69;22.09
47935;BME280;33704;43.592;-79.628;2024-02-23T00:24:59;98434.25;;;35.67;22.02
47935;BME280;33704;43.592;-79.628;2024-02-23T00:25:31;98432.77;;;35.65;22.31
47935;BME280;33704;43.592;-79.628;2024-02-23T00:26:04;98434.00;;;35.68;22.32
47935;BME280;33704;43.592;-79.628;2024-02-23T00:26:36;98434.06;;;35.66;22.13
47935;BME280;33704;43.592;-79.628;2024-02-23T00:27:08;98434.31;;;35.72;22.13
47935;BME280;33704;43.592;-79.628;2024-02-23T00:27:39;98432.59;;;35.76;22.06
47935;BME280;33704;43.592;-79.628;2024-02-23T00:28:14;98432.42;;;35.75;22.10
47935;BME280;33704;43.592;-79.628;2024-02-23T00:28:45;98432.67;;;35.71;22.11
47935;BME280;33704;43.592;-79.628;2024-02-23T00:29:17;98429.71;;;35.74;22.07
47935;BME280;33704;43.592;-79.628;2024-02-23T00:29:49;98429.87;;;35.76;22.01
47935;BME280;33704;43.592;-79.628;2024-02-23T00:30:24;98429.60;;;35.77;22.14
47935;BME280;33704;43.592;-79.628;2024-02-23T00:30:56;98430.27;;;35.76;22.06
47935;BME280;33704;43.592;-79.628;2024-02-23T00:31:28;98429.25;;;35.76;22.02
47935;BME280;33704;43.592;-79.628;2024-02-23T00:31:59;98428.71;;;35.77;22.07
47935;BME280;33704;43.592;-79.628;2024-02-23T00:32:31;98428.21;;;35.79;22.09
47935;BME280;33704;43.592;-79.628;2024-02-23T00:33:05;98430.72;;;35.79;22.05
47935;BME280;33704;43.592;-79.628;2024-02-23T00:33:36;98427.01;;;35.83;21.97
47935;BME280;33704;43.592;-79.628;2024-02-23T00:34:08;98429.15;;;35.81;22.19
47935;BME280;33704;43.592;-79.628;2024-02-23T00:34:40;98427.50;;;35.79;22.07
47935;BME280;33704;43.592;-79.628;2024-02-23T00:35:12;98427.83;;;35.79;22.14
47935;BME280;33704;43.592;-79.628;2024-02-23T00:35:44;98427.02;;;35.79;22.16
47935;BME280;33704;43.592;-79.628;2024-02-23T00:36:16;98426.55;;;35.82;22.12
47935;BME280;33704;43.592;-79.628;2024-02-23T00:36:48;98423.61;;;35.89;22.04
47935;BME280;33704;43.592;-79.628;2024-02-23T00:37:20;98423.78;;;35.87;22.19
47935;BME280;33704;43.592;-79.628;2024-02-23T00:37:52;98424.06;;;35.85;22.13
47935;BME280;33704;43.592;-79.628;2024-02-23T00:38:24;98419.80;;;35.87;22.26
47935;BME280;33704;43.592;-79.628;2024-02-23T00:38:56;98418.13;;;35.87;22.62
47935;BME280;33704;43.592;-79.628;2024-02-23T00:39:27;98416.79;;;35.88;22.62
47935;BME280;33704;43.592;-79.628;2024-02-23T00:39:59;98415.45;;;35.88;22.42
47935;BME280;33704;43.592;-79.628;2024-02-23T00:40:31;98414.43;;;35.93;22.36
47935;BME280;33704;43.592;-79.628;2024-02-23T00:41:04;98414.72;;;35.97;22.42
47935;BME280;33704;43.592;-79.628;2024-02-23T00:41:36;98412.87;;;35.95;22.61
47935;BME280;33704;43.592;-79.628;2024-02-23T00:42:08;98412.13;;;35.94;22.63
47935;BME280;33704;43.592;-79.628;2024-02-23T00:42:39;98412.79;;;36.01;22.79
47935;BME280;33704;43.592;-79.628;2024-02-23T00:43:13;98411.07;;;35.99;23.22
47935;BME280;33704;43.592;-79.628;2024-02-23T00:43:45;98411.21;;;36.00;23.24
47935;BME280;33704;43.592;-79.628;2024-02-23T00:44:17;98410.00;;;36.06;24.11
47935;BME280;33704;43.592;-79.628;2024-02-23T00:44:49;98409.49;;;36.03;23.30
47935;BME280;33704;43.592;-79.628;2024-02-23T00:45:21;98408.63;;;36.04;24.38
47935;BME280;33704;43.592;-79.628;2024-02-23T00:45:53;98408.68;;;36.01;23.35
47935;BME280;33704;43.592;-79.628;2024-02-23T00:46:25;98406.04;;;36.01;24.21
47935;BME280;33704;43.592;-79.628;2024-02-23T00:46:57;98404.20;;;36.01;24.05
47935;BME280;33704;43.592;-79.628;2024-02-23T00:47:29;98403.22;;;36.04;23.77
47935;BME280;33704;43.592;-79.628;2024-02-23T00:48:02;98404.36;;;36.07;24.00
47935;BME280;33704;43.592;-79.628;2024-02-23T00:48:34;98403.46;;;36.06;23.59
47935;BME280;33704;43.592;-79.628;2024-02-23T00:49:06;98404.01;;;36.07;23.80
47935;BME280;33704;43.592;-79.628;2024-02-23T00:49:38;98403.80;;;36.08;23.89
47935;BME280;33704;43.592;-79.628;2024-02-23T00:50:10;98402.72;;;36.10;23.90
47935;BME280;33704;43.592;-79.628;2024-02-23T00:50:43;98402.38;;;36.14;24.04
47935;BME280;33704;43.592;-79.628;2024-02-23T00:51:14;98402.95;;;36.13;24.12
47935;BME280;33704;43.592;-79.628;2024-02-23T00:51:46;98402.31;;;36.14;23.69
47935;BME280;33704;43.592;-79.628;2024-02-23T00:52:18;98400.82;;;36.11;24.03
47935;BME280;33704;43.592;-79.628;2024-02-23T00:52:50;98400.00;;;36.14;23.81
47935;BME280;33704;43.592;-79.628;2024-02-23T00:53:23;98399.88;;;36.11;23.64
47935;BME280;33704;43.592;-79.628;2024-02-23T00:53:54;98399.23;;;36.12;23.41
47935;BME280;33704;43.592;-79.628;2024-02-23T00:54:26;98400.00;;;36.15;23.27
47935;BME280;33704;43.592;-79.628;2024-02-23T00:54:58;98399.89;;;36.18;23.33
47935;BME280;33704;43.592;-79.628;2024-02-23T00:55:30;98400.07;;;36.17;23.51
47935;BME280;33704;43.592;-79.628;2024-02-23T00:56:04;98398.01;;;36.12;23.76
47935;BME280;33704;43.592;-79.628;2024-02-23T00:56:36;98400.05;;;36.11;23.34
47935;BME280;33704;43.592;-79.628;2024-02-23T00:57:08;98400.74;;;36.10;23.11
47935;BME280;33704;43.592;-79.628;2024-02-23T00:57:39;98398.92;;;36.18;23.36
47935;BME280;33704;43.592;-79.628;2024-02-23T00:58:12;98399.51;;;36.21;22.99
47935;BME280;33704;43.592;-79.628;2024-02-23T00:58:44;98399.85;;;36.20;23.15
47935;BME280;33704;43.592;-79.628;2024-02-23T00:59:16;98399.80;;;36.17;23.22
47935;BME280;33704;43.592;-79.628;2024-02-23T00:59:47;98399.58;;;36.22;23.27
47935;BME280;33704;43.592;-79.628;2024-02-23T01:00:23;98399.36;;;36.25;23.20
47935;BME280;33704;43.592;-79.628;2024-02-23T01:00:55;98398.24;;;36.26;23.25
47935;BME280;33704;43.592;-79.628;2024-02-23T01:01:27;98398.78;;;36.27;23.03
47935;BME280;33704;43.592;-79.628;2024-02-23T01:01:59;98398.24;;;36.25;23.52
47935;BME280;33704;43.592;-79.628;2024-02-23T01:02:31;98397.40;;;36.26;22.82
47935;BME280;33704;43.592;-79.628;2024-02-23T01:03:04;98396.68;;;36.30;23.06
47935;BME280;33704;43.592;-79.628;2024-02-23T01:03:36;98398.08;;;36.30;23.18
47935;BME280;33704;43.592;-79.628;2024-02-23T01:04:08;98397.17;;;36.23;23.23
47935;BME280;33704;43.592;-79.628;2024-02-23T01:04:39;98395.38;;;36.26;23.29
47935;BME280;33704;43.592;-79.628;2024-02-23T01:05:12;98394.82;;;36.28;22.94
47935;BME280;33704;43.592;-79.628;2024-02-23T01:05:44;98395.28;;;36.32;22.95
47935;BME280;33704;43.592;-79.628;2024-02-23T01:06:16;98392.01;;;36.33;23.20
47935;BME280;33704;43.592;-79.628;2024-02-23T01:06:48;98390.10;;;36.33;23.19
47935;BME280;33704;43.592;-79.628;2024-02-23T01:07:20;98388.13;;;36.32;23.34
47935;BME280;33704;43.592;-79.628;2024-02-23T01:07:52;98387.80;;;36.37;22.93
47935;BME280;33704;43.592;-79.628;2024-02-23T01:08:24;98387.79;;;36.34;23.35
47935;BME280;33704;43.592;-79.628;2024-02-23T01:08:56;98389.64;;;36.39;23.10
47935;BME280;33704;43.592;-79.628;2024-02-23T01:09:28;98388.24;;;36.38;22.70
47935;BME280;33704;43.592;-79.628;2024-02-23T01:10:00;98388.66;;;36.38;23.14
47935;BME280;33704;43.592;-79.628;2024-02-23T01:10:32;98387.22;;;36.37;23.19
47935;BME280;33704;43.592;-79.628;2024-02-23T01:11:04;98388.11;;;36.42;23.03
47935;BME280;33704;43.592;-79.628;2024-02-23T01:11:36;98388.38;;;36.44;23.01
47935;BME280;33704;43.592;-79.628;2024-02-23T01:12:08;98387.65;;;36.41;22.71
47935;BME280;33704;43.592;-79.628;2024-02-23T01:12:41;98383.22;;;36.42;23.18
47935;BME280;33704;43.592;-79.628;2024-02-23T01:13:13;98386.30;;;36.41;22.78
47935;BME280;33704;43.592;-79.628;2024-02-23T01:13:45;98382.79;;;36.45;22.86
47935;BME280;33704;43.592;-79.628;2024-02-23T01:14:17;98380.45;;;36.46;23.03
47935;BME280;33704;43.592;-79.628;2024-02-23T01:14:49;98377.07;;;36.47;23.03
47935;BME280;33704;43.592;-79.628;2024-02-23T01:15:21;98376.27;;;36.48;22.90
47935;BME280;33704;43.592;-79.628;2024-02-23T01:15:53;98376.23;;;36.49;22.81
47935;BME280;33704;43.592;-79.628;2024-02-23T01:16:25;98377.23;;;36.47;22.59
47935;BME280;33704;43.592;-79.628;2024-02-23T01:16:57;98375.94;;;36.51;22.56
47935;BME280;33704;43.592;-79.628;2024-02-23T01:17:29;98375.72;;;36.53;22.94
47935;BME280;33704;43.592;-79.628;2024-02-23T01:18:03;98376.14;;;36.54;22.61
47935;BME280;33704;43.592;-79.628;2024-02-23T01:18:35;98377.18;;;36.52;23.08
47935;BME280;33704;43.592;-79.628;2024-02-23T01:19:07;98378.12;;;36.49;22.78
47935;BME280;33704;43.592;-79.628;2024-02-23T01:19:39;98379.02;;;36.47;22.70
47935;BME280;33704;43.592;-79.628;2024-02-23T01:20:13;98379.67;;;36.49;22.75
47935;BME280;33704;43.592;-79.628;2024-02-23T01:20:45;98379.16;;;36.44;22.64
47935;BME280;33704;43.592;-79.628;2024-02-23T01:21:17;98381.31;;;36.41;22.79
47935;BME280;33704;43.592;-79.628;2024-02-23T01:21:48;98381.48;;;36.39;23.07
47935;BME280;33704;43.592;-79.628;2024-02-23T01:22:21;98381.54;;;36.40;22.80
47935;BME280;33704;43.592;-79.628;2024-02-23T01:22:53;98381.76;;;36.43;22.78
47935;BME280;33704;43.592;-79.628;2024-02-23T01:23:25;98381.07;;;36.45;22.87
47935;BME280;33704;43.592;-79.628;2024-02-23T01:23:57;98382.04;;;36.44;22.67
47935;BME280;33704;43.592;-79.628;2024-02-23T01:24:28;98380.32;;;36.44;22.50
47935;BME280;33704;43.592;-79.628;2024-02-23T01:25:00;98381.84;;;36.46;22.85
47935;BME280;33704;43.592;-79.628;2024-02-23T01:25:32;98381.40;;;36.48;22.87
47935;BME280;33704;43.592;-79.628;2024-02-23T01:26:04;98381.24;;;36.50;22.52
47935;BME280;33704;43.592;-79.628;2024-02-23T01:26:36;98379.73;;;36.56;22.50
47935;BME280;33704;43.592;-79.628;2024-02-23T01:27:08;98378.44;;;36.57;22.67
47935;BME280;33704;43.592;-79.628;2024-02-23T01:27:40;98379.78;;;36.50;22.88
47935;BME280;33704;43.592;-79.628;2024-02-23T01:28:13;98379.60;;;36.47;22.51
47935;BME280;33704;43.592;-79.628;2024-02-23T01:28:44;98379.18;;;36.49;22.75
47935;BME280;33704;43.592;-79.628;2024-02-23T01:29:16;98379.51;;;36.54;22.53
47935;BME280;33704;43.592;-79.628;2024-02-23T01:29:48;98379.32;;;36.50;22.75
47935;BME280;33704;43.592;-79.628;2024-02-23T01:30:22;98380.42;;;36.45;23.03
47935;BME280;33704;43.592;-79.628;2024-02-23T01:30:54;98377.40;;;36.50;22.37
47935;BME280;33704;43.592;-79.628;2024-02-23T01:31:26;98378.06;;;36.53;22.71
47935;BME280;33704;43.592;-79.628;2024-02-23T01:31:57;98377.11;;;36.54;22.57
47935;BME280;33704;43.592;-79.628;2024-02-23T01:32:29;98376.88;;;36.49;22.94
47935;BME280;33704;43.592;-79.628;2024-02-23T01:33:03;98376.93;;;36.45;22.49
47935;BME280;33704;43.592;-79.628;2024-02-23T01:33:34;98374.78;;;36.42;22.65
47935;BME280;33704;43.592;-79.628;2024-02-23T01:34:06;98379.59;;;36.39;22.76
47935;BME280;33704;43.592;-79.628;2024-02-23T01:34:38;98378.05;;;36.37;22.91
47935;BME280;33704;43.592;-79.628;2024-02-23T01:35:10;98378.69;;;36.40;22.83
47935;BME280;33704;43.592;-79.628;2024-02-23T01:35:42;98378.88;;;36.40;22.70
47935;BME280;33704;43.592;-79.628;2024-02-23T01:36:14;98380.13;;;36.35;22.76
47935;BME280;33704;43.592;-79.628;2024-02-23T01:36:46;98381.48;;;36.35;22.87
47935;BME280;33704;43.592;-79.628;2024-02-23T01:37:18;98383.24;;;36.39;22.53
47935;BME280;33704;43.592;-79.628;2024-02-23T01:37:50;98383.44;;;36.41;23.01
47935;BME280;33704;43.592;-79.628;2024-02-23T01:38:22;98381.75;;;36.39;22.50
47935;BME280;33704;43.592;-79.628;2024-02-23T01:38:54;98383.41;;;36.34;22.65
47935;BME280;33704;43.592;-79.628;2024-02-23T01:39:26;98382.43;;;36.32;22.90
47935;BME280;33704;43.592;-79.628;2024-02-23T01:39:59;98385.96;;;36.35;22.60
47935;BME280;33704;43.592;-79.628;2024-02-23T01:40:31;98384.29;;;36.33;22.85
47935;BME280;33704;43.592;-79.628;2024-02-23T01:41:04;98385.53;;;36.33;22.78
47935;BME280;33704;43.592;-79.628;2024-02-23T01:41:36;98383.80;;;36.31;22.89
47935;BME280;33704;43.592;-79.628;2024-02-23T01:42:09;98384.22;;;36.37;22.91
47935;BME280;33704;43.592;-79.628;2024-02-23T01:42:41;98384.96;;;36.38;22.67
47935;BME280;33704;43.592;-79.628;2024-02-23T01:43:14;98385.57;;;36.32;22.52
47935;BME280;33704;43.592;-79.628;2024-02-23T01:43:45;98386.16;;;36.36;22.63
47935;BME280;33704;43.592;-79.628;2024-02-23T01:44:17;98384.66;;;36.35;22.96
47935;BME280;33704;43.592;-79.628;2024-02-23T01:44:49;98384.26;;;36.35;23.01
47935;BME280;33704;43.592;-79.628;2024-02-23T01:45:21;98385.89;;;36.33;22.81
47935;BME280;33704;43.592;-79.628;2024-02-23T01:45:54;98386.03;;;36.27;23.10
47935;BME280;33704;43.592;-79.628;2024-02-23T01:46:26;98385.02;;;36.27;22.79
47935;BME280;33704;43.592;-79.628;2024-02-23T01:46:58;98386.55;;;36.28;22.69
47935;BME280;33704;43.592;-79.628;2024-02-23T01:47:32;98387.54;;;36.25;23.03
47935;BME280;33704;43.592;-79.628;2024-02-23T01:48:04;98388.04;;;36.24;23.21
47935;BME280;33704;43.592;-79.628;2024-02-23T01:48:38;98388.38;;;36.22;23.19
47935;BME280;33704;43.592;-79.628;2024-02-23T01:49:10;98388.78;;;36.26;23.48
47935;BME280;33704;43.592;-79.628;2024-02-23T01:49:43;98390.34;;;36.24;23.37
47935;BME280;33704;43.592;-79.628;2024-02-23T01:50:16;98389.64;;;36.27;23.03
47935;BME280;33704;43.592;-79.628;2024-02-23T01:50:48;98390.06;;;36.29;23.44
47935;BME280;33704;43.592;-79.628;2024-02-23T01:51:20;98390.52;;;36.28;23.29
47935;BME280;33704;43.592;-79.628;2024-02-23T01:51:52;98392.52;;;36.27;23.57
47935;BME280;33704;43.592;-79.628;2024-02-23T01:52:25;98391.67;;;36.28;23.18
47935;BME280;33704;43.592;-79.628;2024-02-23T01:53:00;98391.54;;;36.30;23.16
47935;BME280;33704;43.592;-79.628;2024-02-23T01:53:33;98388.33;;;36.30;23.30
47935;BME280;33704;43.592;-79.628;2024-02-23T01:54:05;98389.05;;;36.28;23.09
47935;BME280;33704;43.592;-79.628;2024-02-23T01:54:38;98389.49;;;36.28;23.50
47935;BME280;33704;43.592;-79.628;2024-02-23T01:55:10;98388.08;;;36.29;23.71
47935;BME280;33704;43.592;-79.628;2024-02-23T01:55:43;98389.24;;;36.30;23.64
47935;BME280;33704;43.592;-79.628;2024-02-23T01:56:17;98388.72;;;36.29;23.46
47935;BME280;33704;43.592;-79.628;2024-02-23T01:56:49;98387.33;;;36.28;23.20
47935;BME280;33704;43.592;-79.628;2024-02-23T01:57:23;98388.79;;;36.29;23.30
47935;BME280;33704;43.592;-79.628;2024-02-23T01:57:56;98385.41;;;36.28;23.47
47935;BME280;33704;43.592;-79.628;2024-02-23T01:58:34;98385.30;;;36.28;23.12
47935;BME280;33704;43.592;-79.628;2024-02-23T01:59:07;98387.59;;;36.31;23.02
47935;BME280;33704;43.592;-79.628;2024-02-23T01:59:39;98385.15;;;36.26;23.48
47935;BME280;33704;43.592;-79.628;2024-02-23T02:00:17;98386.66;;;36.29;22.91
47935;BME280;33704;43.592;-79.628;2024-02-23T02:00:49;98386.48;;;36.36;22.98
47935;BME280;33704;43.592;-79.628;2024-02-23T02:01:21;98385.68;;;36.29;23.28
47935;BME280;33704;43.592;-79.628;2024-02-23T02:01:53;98386.73;;;36.29;23.54
47935;BME280;33704;43.592;-79.628;2024-02-23T02:02:25;98387.53;;;36.28;22.96
47935;BME280;33704;43.592;-79.628;2024-02-23T02:02:58;98385.98;;;36.25;23.55
47935;BME280;33704;43.592;-79.628;2024-02-23T02:03:30;98387.00;;;36.27;23.52
47935;BME280;33704;43.592;-79.628;2024-02-23T02:04:04;98386.08;;;36.30;23.26
47935;BME280;33704;43.592;-79.628;2024-02-23T02:04:35;98386.49;;;36.27;23.53
47935;BME280;33704;43.592;-79.628;2024-02-23T02:05:08;98385.66;;;36.27;23.44
47935;BME280;33704;43.592;-79.628;2024-02-23T02:05:40;98386.50;;;36.27;23.43
47935;BME280;33704;43.592;-79.628;2024-02-23T02:06:12;98386.88;;;36.27;23.35
47935;BME280;33704;43.592;-79.628;2024-02-23T02:06:46;98386.00;;;36.29;23.24
47935;BME280;33704;43.592;-79.628;2024-02-23T02:07:18;98386.73;;;36.26;23.47
47935;BME280;33704;43.592;-79.628;2024-02-23T02:07:52;98387.23;;;36.29;23.42
47935;BME280;33704;43.592;-79.628;2024-02-23T02:08:24;98386.09;;;36.27;23.21
47935;BME280;33704;43.592;-79.628;2024-02-23T02:08:56;98384.33;;;36.30;23.03
47935;BME280;33704;43.592;-79.628;2024-02-23T02:09:28;98385.90;;;36.33;22.98
47935;BME280;33704;43.592;-79.628;2024-02-23T02:10:00;98383.99;;;36.33;22.99
47935;BME280;33704;43.592;-79.628;2024-02-23T02:10:32;98382.56;;;36.32;23.19
47935;BME280;33704;43.592;-79.628;2024-02-23T02:11:04;98382.94;;;36.32;22.75
47935;BME280;33704;43.592;-79.628;2024-02-23T02:11:45;98382.23;;;36.31;23.13
47935;BME280;33704;43.592;-79.628;2024-02-23T02:12:27;98381.78;;;36.37;22.75
47935;BME280;33704;43.592;-79.628;2024-02-23T02:13:03;98382.83;;;36.33;23.38
47935;BME280;33704;43.592;-79.628;2024-02-23T02:13:35;98383.75;;;36.33;22.93
47935;BME280;33704;43.592;-79.628;2024-02-23T02:14:07;98381.01;;;36.37;22.82
47935;BME280;33704;43.592;-79.628;2024-02-23T02:14:39;98382.10;;;36.36;23.07
47935;BME280;33704;43.592;-79.628;2024-02-23T02:15:12;98381.57;;;36.38;23.19
47935;BME280;33704;43.592;-79.628;2024-02-23T02:15:44;98380.51;;;36.36;23.33
47935;BME280;33704;43.592;-79.628;2024-02-23T02:16:16;98382.06;;;36.32;23.26
47935;BME280;33704;43.592;-79.628;2024-02-23T02:16:48;98379.54;;;36.32;23.28
47935;BME280;33704;43.592;-79.628;2024-02-23T02:17:20;98377.33;;;36.34;23.05
47935;BME280;33704;43.592;-79.628;2024-02-23T02:17:52;98376.34;;;36.38;22.99
47935;BME280;33704;43.592;-79.628;2024-02-23T02:18:24;98375.72;;;36.32;23.21
47935;BME280;33704;43.592;-79.628;2024-02-23T02:18:57;98375.24;;;36.30;23.73
47935;BME280;33704;43.592;-79.628;2024-02-23T02:19:28;98374.23;;;36.31;23.30
47935;BME280;33704;43.592;-79.628;2024-02-23T02:20:03;98375.99;;;36.30;23.48
47935;BME280;33704;43.592;-79.628;2024-02-23T02:20:37;98374.85;;;36.30;23.49
47935;BME280;33704;43.592;-79.628;2024-02-23T02:21:12;98377.27;;;36.30;23.30
47935;BME280;33704;43.592;-79.628;2024-02-23T02:21:44;98376.99;;;36.30;23.49
47935;BME280;33704;43.592;-79.628;2024-02-23T02:22:16;98375.67;;;36.28;23.81
47935;BME280;33704;43.592;-79.628;2024-02-23T02:22:48;98374.89;;;36.26;23.96
47935;BME280;33704;43.592;-79.628;2024-02-23T02:23:20;98373.15;;;36.27;24.01
47935;BME280;33704;43.592;-79.628;2024-02-23T02:23:52;98372.84;;;36.26;24.11
47935;BME280;33704;43.592;-79.628;2024-02-23T02:24:25;98373.31;;;36.27;24.37
47935;BME280;33704;43.592;-79.628;2024-02-23T02:24:56;98373.45;;;36.29;23.97
47935;BME280;33704;43.592;-79.628;2024-02-23T02:25:28;98373.69;;;36.29;23.95
47935;BME280;33704;43.592;-79.628;2024-02-23T02:26:03;98372.23;;;36.30;23.92
47935;BME280;33704;43.592;-79.628;2024-02-23T02:26:36;98372.97;;;36.30;24.02
47935;BME280;33704;43.592;-79.628;2024-02-23T02:27:09;98371.33;;;36.28;24.02
47935;BME280;33704;43.592;-79.628;2024-02-23T02:27:41;98372.26;;;36.28;24.02
47935;BME280;33704;43.592;-79.628;2024-02-23T02:28:13;98368.84;;;36.27;24.30
47935;BME280;33704;43.592;-79.628;2024-02-23T02:28:45;98370.41;;;36.27;24.27
47935;BME280;33704;43.592;-79.628;2024-02-23T02:29:17;98370.93;;;36.25;24.06
47935;BME280;33704;43.592;-79.628;2024-02-23T02:29:51;98369.47;;;36.26;24.30
47935;BME280;33704;43.592;-79.628;2024-02-23T02:30:24;98369.79;;;36.27;24.69
47935;BME280;33704;43.592;-79.628;2024-02-23T02:30:56;98368.52;;;36.25;24.85
47935;BME280;33704;43.592;-79.628;2024-02-23T02:31:28;98369.24;;;36.28;24.88
47935;BME280;33704;43.592;-79.628;2024-02-23T02:32:00;98368.02;;;36.26;24.54
47935;BME280;33704;43.592;-79.628;2024-02-23T02:32:32;98367.74;;;36.29;24.13
47935;BME280;33704;43.592;-79.628;2024-02-23T02:33:04;98365.77;;;36.30;24.08
47935;BME280;33704;43.592;-79.628;2024-02-23T02:33:36;98363.92;;;36.30;24.41
47935;BME280;33704;43.592;-79.628;2024-02-23T02:34:08;98363.52;;;36.31;24.11
47935;BME280;33704;43.592;-79.628;2024-02-23T02:34:40;98364.93;;;36.31;24.25
47935;BME280;33704;43.592;-79.628;2024-02-23T02:35:12;98365.51;;;36.29;24.45
47935;BME280;33704;43.592;-79.628;2024-02-23T02:35:44;98364.87;;;36.29;24.17
47935;BME280;33704;43.592;-79.628;2024-02-23T02:36:16;98362.34;;;36.28;24.83
47935;BME280;33704;43.592;-79.628;2024-02-23T02:36:48;98359.68;;;36.26;24.57
47935;BME280;33704;43.592;-79.628;2024-02-23T02:37:20;98359.60;;;36.32;24.26
47935;BME280;33704;43.592;-79.628;2024-02-23T02:37:53;98357.78;;;36.27;24.46
47935;BME280;33704;43.592;-79.628;2024-02-23T02:38:25;98358.53;;;36.29;24.69
47935;BME280;33704;43.592;-79.628;2024-02-23T02:38:57;98358.58;;;36.30;24.83
47935;BME280;33704;43.592;-79.628;2024-02-23T02:39:29;98358.49;;;36.33;24.65
47935;BME280;33704;43.592;-79.628;2024-02-23T02:40:02;98359.79;;;36.36;24.66
47935;BME280;33704;43.592;-79.628;2024-02-23T02:40:35;98358.45;;;36.33;24.87
47935;BME280;33704;43.592;-79.628;2024-02-23T02:41:07;98357.61;;;36.33;24.75
47935;BME280;33704;43.592;-79.628;2024-02-23T02:41:38;98357.94;;;36.32;24.89
47935;BME280;33704;43.592;-79.628;2024-02-23T02:42:10;98358.91;;;36.32;24.91
47935;BME280;33704;43.592;-79.628;2024-02-23T02:42:42;98360.83;;;36.33;24.58
47935;BME280;33704;43.592;-79.628;2024-02-23T02:43:14;98359.14;;;36.33;24.96
47935;BME280;33704;43.592;-79.628;2024-02-23T02:43:46;98360.20;;;36.35;25.20
47935;BME280;33704;43.592;-79.628;2024-02-23T02:44:17;98360.07;;;36.38;24.74
47935;BME280;33704;43.592;-79.628;2024-02-23T02:44:51;98358.32;;;36.37;24.57
47935;BME280;33704;43.592;-79.628;2024-02-23T02:45:23;98358.86;;;36.38;24.52
47935;BME280;33704;43.592;-79.628;2024-02-23T02:45:55;98359.13;;;36.35;24.72
47935;BME280;33704;43.592;-79.628;2024-02-23T02:46:27;98357.83;;;36.37;24.93
47935;BME280;33704;43.592;-79.628;2024-02-23T02:46:59;98357.86;;;36.37;24.57